createdAt,value
2022-10-26T00:00:30.749Z,5.13
2022-10-26T00:03:02.782Z,4.43
2022-10-26T00:05:34.839Z,5.55
2022-10-26T00:08:07.155Z,5.25
2022-10-26T00:10:39.775Z,5.43
2022-10-26T00:13:13.414Z,4.35
2022-10-26T00:15:45.393Z,4.70
2022-10-26T00:18:17.383Z,4.57
2022-10-26T00:20:49.938Z,4.57
2022-10-26T00:23:39.547Z,4.38
2022-10-26T00:26:12.215Z,4.47
2022-10-26T00:28:44.183Z,4.47
2022-10-26T00:31:16.606Z,5.15
2022-10-26T00:33:52.870Z,3.70
2022-10-26T00:36:26.534Z,4.20
2022-10-26T00:38:58.885Z,3.30
2022-10-26T00:41:34.394Z,4.10
2022-10-26T00:44:43.314Z,4.35
2022-10-26T00:47:42.454Z,4.63
2022-10-26T00:50:25.205Z,4.20
2022-10-26T00:53:05.015Z,4.15
2022-10-26T00:55:41.337Z,4.32
2022-10-26T00:58:35.030Z,4.50
2022-10-26T01:01:07.185Z,4.05
2022-10-26T01:03:39.659Z,4.43
2022-10-26T01:06:12.741Z,4.55
2022-10-26T01:08:46.037Z,3.72
2022-10-26T01:11:19.025Z,4.15
2022-10-26T01:13:53.166Z,3.60
2022-10-26T01:16:39.608Z,3.92
2022-10-26T01:19:53.888Z,3.95
2022-10-26T01:22:54.757Z,3.35
2022-10-26T01:26:24.351Z,4.05
2022-10-26T01:29:37.035Z,4.32
2022-10-26T01:32:57.450Z,3.58
2022-10-26T01:36:05.483Z,3.70
2022-10-26T01:38:55.745Z,4.15
2022-10-26T01:41:39.794Z,5.30
2022-10-26T01:44:56.434Z,4.85
2022-10-26T01:47:35.034Z,4.50
2022-10-26T01:50:10.261Z,5.10
2022-10-26T01:52:42.515Z,5.28
2022-10-26T01:55:38.793Z,5.30
2022-10-26T01:58:58.598Z,5.75
2022-10-26T02:01:52.949Z,5.22
2022-10-26T02:04:56.732Z,5.10
2022-10-26T02:08:16.222Z,5.93
2022-10-26T02:11:26.309Z,5.20
2022-10-26T02:14:36.477Z,5.20
2022-10-26T02:17:28.968Z,5.85
2022-10-26T02:20:13.852Z,5.05
2022-10-26T02:22:54.965Z,5.05
2022-10-26T02:25:33.985Z,5.82
2022-10-26T02:28:14.374Z,6.07
2022-10-26T02:30:56.573Z,7.10
2022-10-26T02:33:33.783Z,5.70
2022-10-26T02:36:12.528Z,6.30
2022-10-26T02:38:51.126Z,6.45
2022-10-26T02:41:28.189Z,5.82
2022-10-26T02:44:14.354Z,5.80
2022-10-26T02:46:55.999Z,5.70
2022-10-26T02:49:29.469Z,5.45
2022-10-26T02:52:26.548Z,4.63
2022-10-26T02:55:23.928Z,5.13
2022-10-26T02:58:04.228Z,4.97
2022-10-26T03:00:40.397Z,5.25
2022-10-26T03:03:13.883Z,4.75
2022-10-26T03:05:46.047Z,5.22
2022-10-26T03:08:26.529Z,5.47
2022-10-26T03:10:58.767Z,5.00
2022-10-26T03:13:30.651Z,5.30
2022-10-26T03:16:02.630Z,4.10
2022-10-26T03:18:34.500Z,5.15
2022-10-26T03:21:06.583Z,4.25
2022-10-26T03:23:38.617Z,4.75
2022-10-26T03:26:10.550Z,4.00
2022-10-26T03:28:42.462Z,4.50
2022-10-26T03:31:14.502Z,3.83
2022-10-26T03:33:46.382Z,4.63
2022-10-26T03:36:18.441Z,4.75
2022-10-26T03:38:50.349Z,5.10
2022-10-26T03:41:22.219Z,4.85
2022-10-26T03:43:54.105Z,4.28
2022-10-26T03:46:25.969Z,5.50
2022-10-26T03:48:57.823Z,5.05
2022-10-26T03:51:29.790Z,6.30
2022-10-26T03:54:02.093Z,7.00
2022-10-26T03:56:34.166Z,6.40
2022-10-26T03:59:06.052Z,6.32
2022-10-26T04:01:38.933Z,6.55
2022-10-26T04:04:11.022Z,5.78
2022-10-26T04:06:43.013Z,5.90
2022-10-26T04:09:14.937Z,5.85
2022-10-26T04:11:46.824Z,6.63
2022-10-26T04:14:18.862Z,7.47
2022-10-26T04:16:50.835Z,5.97
2022-10-26T04:19:22.745Z,6.63
2022-10-26T04:21:54.653Z,6.28
2022-10-26T04:24:47.458Z,5.20
2022-10-26T04:27:21.058Z,5.57
2022-10-26T04:29:52.974Z,5.95
2022-10-26T04:32:24.969Z,5.70
2022-10-26T04:34:57.326Z,5.97
2022-10-26T04:37:29.156Z,5.00
2022-10-26T04:40:01.079Z,5.55
2022-10-26T04:42:41.171Z,5.72
2022-10-26T04:45:16.518Z,4.95
2022-10-26T04:47:48.512Z,5.30
2022-10-26T04:50:41.146Z,4.65
2022-10-26T04:53:13.230Z,5.47
2022-10-26T04:55:45.475Z,5.35
2022-10-26T04:58:17.806Z,4.13
2022-10-26T05:00:49.751Z,5.72
2022-10-26T05:03:21.964Z,4.70
2022-10-26T05:05:54.054Z,4.60
2022-10-26T05:08:30.000Z,4.38
2022-10-26T05:11:01.840Z,4.43
2022-10-26T05:13:33.774Z,4.60
2022-10-26T05:16:06.268Z,4.50
2022-10-26T05:19:09.385Z,4.43
2022-10-26T05:22:38.868Z,4.20
2022-10-26T05:25:11.541Z,3.80
2022-10-26T05:27:43.509Z,3.80
2022-10-26T05:30:15.449Z,3.60
2022-10-26T05:33:42.817Z,3.80
2022-10-26T05:36:14.917Z,3.65
2022-10-26T05:38:48.514Z,3.70
2022-10-26T05:41:20.697Z,4.60
2022-10-26T05:43:52.625Z,3.35
2022-10-26T05:46:24.516Z,4.47
2022-10-26T05:48:56.551Z,3.95
2022-10-26T05:51:28.540Z,4.30
2022-10-26T05:54:00.556Z,3.33
2022-10-26T05:56:40.443Z,3.47
2022-10-26T05:59:17.298Z,3.60
2022-10-26T06:02:06.734Z,3.35
2022-10-26T06:05:02.735Z,3.10
2022-10-26T06:07:35.863Z,3.35
2022-10-26T06:10:10.864Z,3.40
2022-10-26T06:12:43.858Z,3.65
2022-10-26T06:15:19.989Z,3.58
2022-10-26T06:18:01.695Z,3.60
2022-10-26T06:21:16.304Z,3.88
2022-10-26T06:24:13.960Z,4.07
2022-10-26T06:27:20.834Z,4.03
2022-10-26T06:30:10.188Z,3.63
2022-10-26T06:32:46.996Z,3.03
2022-10-26T06:35:22.908Z,3.67
2022-10-26T06:38:20.688Z,3.22
2022-10-26T06:40:56.932Z,3.03
2022-10-26T06:43:35.476Z,3.10
2022-10-26T06:46:31.885Z,3.00
2022-10-26T06:49:34.827Z,3.40
2022-10-26T06:52:27.160Z,2.85
2022-10-26T06:55:13.046Z,3.17
2022-10-26T06:57:46.875Z,3.00
2022-10-26T07:00:25.295Z,3.20
2022-10-26T07:02:59.118Z,2.70
2022-10-26T07:05:31.277Z,3.40
2022-10-26T07:08:05.298Z,3.00
2022-10-26T07:10:39.246Z,3.42
2022-10-26T07:13:11.772Z,3.35
2022-10-26T07:15:44.316Z,2.67
2022-10-26T07:18:17.478Z,2.65
2022-10-26T07:20:49.663Z,3.15
2022-10-26T07:23:23.295Z,2.72
2022-10-26T07:25:55.494Z,3.10
2022-10-26T07:28:30.283Z,2.80
2022-10-26T07:31:02.472Z,3.58
2022-10-26T07:33:39.439Z,2.63
2022-10-26T07:36:15.771Z,3.28
2022-10-26T07:39:32.774Z,3.42
2022-10-26T07:42:05.379Z,3.17
2022-10-26T07:44:37.362Z,2.85
2022-10-26T07:47:09.379Z,3.15
2022-10-26T07:49:41.493Z,3.50
2022-10-26T07:52:13.502Z,3.45
2022-10-26T07:54:45.529Z,3.28
2022-10-26T07:57:17.646Z,3.22
2022-10-26T07:59:49.891Z,3.30
2022-10-26T08:02:21.911Z,3.35
2022-10-26T08:04:55.039Z,3.45
2022-10-26T08:07:27.721Z,3.35
2022-10-26T08:10:00.816Z,3.40
2022-10-26T08:12:32.887Z,4.28
2022-10-26T08:15:05.506Z,3.10
2022-10-26T08:17:38.424Z,3.47
2022-10-26T08:20:10.946Z,4.00
2022-10-26T08:22:43.134Z,3.60
2022-10-26T08:25:17.610Z,4.18
2022-10-26T08:27:54.333Z,3.72
2022-10-26T08:30:26.372Z,3.40
2022-10-26T08:33:03.413Z,3.25
2022-10-26T08:35:36.964Z,3.45
2022-10-26T08:38:09.044Z,2.97
2022-10-26T08:40:43.016Z,3.10
2022-10-26T08:43:42.475Z,3.00
2022-10-26T08:46:43.169Z,3.22
2022-10-26T08:49:25.884Z,2.85
2022-10-26T08:52:03.192Z,3.13
2022-10-26T08:54:44.279Z,3.05
2022-10-26T08:57:41.350Z,2.95
2022-10-26T09:00:24.045Z,3.33
2022-10-26T09:02:56.617Z,3.20
2022-10-26T09:05:42.886Z,3.00
2022-10-26T09:08:44.616Z,3.30
2022-10-26T09:11:53.580Z,3.20
2022-10-26T09:15:04.361Z,2.92
2022-10-26T09:18:19.449Z,2.42
2022-10-26T09:21:02.540Z,3.30
2022-10-26T09:23:43.496Z,2.80
2022-10-26T09:26:56.149Z,2.88
2022-10-26T09:29:41.955Z,2.83
2022-10-26T09:32:23.427Z,3.60
2022-10-26T09:35:50.585Z,3.37
2022-10-26T09:38:40.301Z,3.60
2022-10-26T09:41:37.068Z,2.83
2022-10-26T09:44:34.771Z,2.83
2022-10-26T09:47:38.146Z,2.90
2022-10-26T09:50:18.540Z,3.00
2022-10-26T09:52:58.004Z,3.10
2022-10-26T09:55:32.193Z,2.87
2022-10-26T09:58:37.887Z,3.03
2022-10-26T10:01:42.651Z,3.30
2022-10-26T10:04:16.820Z,2.87
2022-10-26T10:07:14.157Z,2.97
2022-10-26T10:10:15.199Z,2.90
2022-10-26T10:12:52.743Z,2.90
2022-10-26T10:15:25.919Z,3.13
2022-10-26T10:18:00.132Z,2.80
2022-10-26T10:20:33.336Z,2.60
2022-10-26T10:23:05.562Z,3.27
2022-10-26T10:26:05.193Z,2.50
2022-10-26T10:28:43.716Z,3.20
2022-10-26T10:31:30.434Z,3.00
2022-10-26T10:34:16.481Z,3.37
2022-10-26T10:36:51.979Z,3.20
2022-10-26T10:39:40.493Z,3.50
2022-10-26T10:42:23.692Z,3.30
2022-10-26T10:44:59.014Z,2.80
2022-10-26T10:47:34.183Z,2.80
2022-10-26T10:50:20.266Z,2.60
2022-10-26T10:52:53.188Z,2.60
2022-10-26T10:55:59.805Z,2.93
2022-10-26T10:59:23.265Z,2.70
2022-10-26T11:02:43.590Z,2.70
2022-10-26T11:05:56.686Z,2.50
2022-10-26T11:09:08.723Z,3.10
2022-10-26T11:12:21.617Z,2.57
2022-10-26T11:15:07.083Z,3.13
2022-10-26T11:17:56.456Z,2.60
2022-10-26T11:21:23.297Z,2.53
2022-10-26T11:24:11.316Z,2.97
2022-10-26T11:27:15.443Z,2.57
2022-10-26T11:30:02.288Z,2.37
2022-10-26T11:33:05.273Z,2.70
2022-10-26T11:36:02.243Z,2.37
2022-10-26T11:38:56.279Z,2.20
2022-10-26T11:41:48.505Z,2.60
2022-10-26T11:44:39.665Z,2.13
2022-10-26T11:47:35.716Z,2.90
2022-10-26T11:50:33.733Z,2.07
2022-10-26T11:53:17.675Z,2.60
2022-10-26T11:55:56.848Z,2.40
2022-10-26T11:58:31.621Z,2.00
2022-10-26T12:01:13.252Z,1.83
2022-10-26T12:03:53.840Z,2.30
2022-10-26T12:06:31.550Z,2.00
2022-10-26T12:09:20.271Z,1.87
2022-10-26T12:12:08.623Z,2.30
2022-10-26T12:15:15.956Z,1.93
2022-10-26T12:18:54.649Z,2.30
2022-10-26T12:21:31.941Z,2.37
2022-10-26T12:24:22.877Z,2.27
2022-10-26T12:27:03.958Z,2.93
2022-10-26T12:29:46.523Z,2.03
2022-10-26T12:32:40.333Z,2.17
2022-10-26T12:35:43.123Z,2.30
2022-10-26T12:38:21.987Z,2.27
2022-10-26T12:41:23.276Z,2.33
2022-10-26T12:43:57.352Z,2.30
2022-10-26T12:46:33.076Z,2.30
2022-10-26T12:49:48.839Z,2.40
2022-10-26T12:53:08.501Z,2.63
2022-10-26T12:55:48.210Z,2.00
2022-10-26T12:58:35.071Z,2.20
2022-10-26T13:01:42.572Z,2.20
2022-10-26T13:04:58.964Z,1.90
2022-10-26T13:07:51.440Z,2.83
2022-10-26T13:10:32.441Z,2.43
2022-10-26T13:13:07.921Z,2.70
2022-10-26T13:15:55.054Z,2.10
2022-10-26T13:18:29.388Z,2.20
2022-10-26T13:21:12.048Z,2.33
2022-10-26T13:24:01.539Z,2.17
2022-10-26T13:27:05.705Z,2.30
2022-10-26T13:30:03.485Z,2.27
2022-10-26T13:32:57.071Z,2.50
2022-10-26T13:35:31.431Z,1.87
2022-10-26T13:38:10.670Z,2.20
2022-10-26T13:40:44.349Z,2.10
2022-10-26T13:43:22.547Z,2.37
2022-10-26T13:46:01.279Z,2.03
2022-10-26T13:48:41.761Z,2.67
2022-10-26T13:51:41.403Z,2.10
2022-10-26T13:54:30.933Z,2.40
2022-10-26T13:57:25.772Z,2.90
2022-10-26T14:00:21.988Z,1.93
2022-10-26T14:02:54.677Z,2.57
2022-10-26T14:05:26.952Z,2.17
2022-10-26T14:07:59.885Z,1.73
2022-10-26T14:10:42.155Z,2.40
2022-10-26T14:13:23.686Z,2.57
2022-10-26T14:15:59.393Z,2.50
2022-10-26T14:18:32.028Z,2.03
2022-10-26T14:42:26.938Z,2.40
2022-10-26T14:45:03.696Z,2.80
2022-10-26T14:47:36.995Z,2.57
2022-10-26T14:50:23.203Z,2.60
2022-10-26T14:53:03.177Z,2.40
2022-10-26T14:55:52.218Z,2.03
2022-10-26T15:01:21.992Z,2.20
2022-10-26T15:04:05.530Z,2.33
2022-10-26T15:06:43.497Z,2.40
2022-10-26T15:09:31.869Z,3.50
2022-10-26T15:12:28.493Z,2.60
2022-10-26T15:17:58.210Z,2.50
2022-10-26T15:20:31.739Z,2.60
2022-10-26T15:23:05.145Z,2.90
2022-10-26T15:25:37.217Z,3.20
2022-10-26T15:28:49.687Z,3.40
2022-10-26T15:31:22.624Z,2.67
2022-10-26T15:34:03.741Z,3.40
2022-10-26T15:36:43.270Z,3.60
2022-10-26T15:39:15.890Z,3.33
2022-10-26T15:41:48.693Z,3.17
2022-10-26T15:44:24.323Z,3.17
2022-10-26T15:47:05.112Z,2.50
2022-10-26T15:49:48.910Z,3.13
2022-10-26T15:52:22.160Z,3.50
2022-10-26T15:54:55.108Z,4.20
2022-10-26T15:57:27.740Z,3.83
2022-10-26T15:59:59.877Z,3.50
2022-10-26T16:02:34.577Z,2.43
2022-10-26T16:05:08.906Z,2.73
2022-10-26T16:07:47.220Z,3.20
2022-10-26T16:10:25.000Z,4.13
2022-10-26T16:12:57.306Z,4.30
2022-10-26T16:15:31.071Z,3.00
2022-10-26T16:18:03.935Z,3.57
2022-10-26T16:20:37.644Z,3.50
2022-10-26T16:23:09.866Z,3.00
2022-10-26T16:25:46.980Z,2.57
2022-10-26T16:28:19.851Z,2.87
2022-10-26T16:31:12.416Z,3.00
2022-10-26T16:33:48.260Z,3.13
2022-10-26T16:36:20.468Z,2.93
2022-10-26T16:38:52.705Z,2.90
2022-10-26T16:43:57.137Z,3.30
2022-10-26T16:46:29.272Z,2.87
2022-10-26T16:49:01.633Z,2.97
2022-10-26T16:51:35.034Z,3.20
2022-10-26T16:54:07.291Z,3.03
2022-10-26T16:56:39.555Z,3.95
2022-10-26T16:59:13.298Z,4.00
2022-10-26T17:01:45.936Z,3.67
2022-10-26T17:04:18.061Z,3.42
2022-10-26T17:06:50.352Z,3.63
2022-10-26T17:09:22.459Z,3.10
2022-10-26T17:12:00.919Z,3.10
2022-10-26T17:14:34.677Z,3.70
2022-10-26T17:17:06.680Z,4.57
2022-10-26T17:19:38.846Z,4.60
2022-10-26T17:22:11.001Z,5.78
2022-10-26T17:24:43.127Z,4.50
2022-10-26T17:27:17.022Z,4.70
2022-10-26T17:29:49.959Z,3.72
2022-10-26T17:32:22.901Z,4.25
2022-10-26T17:34:55.048Z,4.57
2022-10-26T17:40:05.561Z,5.60
2022-10-26T17:42:38.388Z,6.30
2022-10-26T17:45:11.671Z,8.05
2022-10-26T17:47:43.932Z,9.27
2022-10-26T17:50:39.748Z,8.43
2022-10-26T17:53:12.365Z,7.05
2022-10-26T17:55:44.425Z,6.18
2022-10-26T17:58:16.750Z,3.60
2022-10-26T18:00:50.066Z,3.70
2022-10-26T18:03:22.472Z,5.25
2022-10-26T18:05:54.830Z,7.20
2022-10-26T18:08:31.141Z,8.75
2022-10-26T18:11:05.324Z,7.82
2022-10-26T18:13:38.250Z,4.45
2022-10-26T18:16:13.768Z,4.82
2022-10-26T18:18:50.501Z,4.30
2022-10-26T18:21:33.595Z,4.40
2022-10-26T18:24:09.408Z,4.15
2022-10-26T18:26:42.282Z,2.83
2022-10-26T18:29:15.082Z,3.08
2022-10-26T18:31:47.354Z,3.55
2022-10-26T18:34:20.544Z,3.40
2022-10-26T18:37:12.678Z,2.90
2022-10-26T18:39:44.914Z,2.75
2022-10-26T18:42:16.963Z,3.03
2022-10-26T18:44:49.005Z,3.45
2022-10-26T18:47:21.219Z,4.03
2022-10-26T18:49:53.689Z,3.15
2022-10-26T18:52:29.921Z,3.60
2022-10-26T18:55:02.318Z,3.38
2022-10-26T18:57:34.997Z,3.45
2022-10-26T19:00:07.868Z,3.83
2022-10-26T19:02:40.464Z,3.95
2022-10-26T19:05:12.620Z,5.55
2022-10-26T19:07:44.678Z,5.80
2022-10-26T19:10:16.786Z,5.25
2022-10-26T19:12:49.219Z,5.32
2022-10-26T19:15:21.490Z,4.70
2022-10-26T19:17:56.713Z,4.88
2022-10-26T19:20:31.335Z,4.85
2022-10-26T19:23:03.596Z,4.90
2022-10-26T19:25:35.825Z,5.20
2022-10-26T19:28:08.114Z,4.80
2022-10-26T19:30:40.616Z,4.85
2022-10-26T19:33:14.363Z,5.55
2022-10-26T19:35:47.268Z,5.05
2022-10-26T19:38:20.655Z,4.50
2022-10-26T19:40:59.381Z,4.70
2022-10-26T19:43:36.772Z,5.32
2022-10-26T19:46:29.917Z,5.00
2022-10-26T19:49:03.991Z,5.13
2022-10-26T19:51:38.016Z,5.38
2022-10-26T19:54:11.274Z,4.38
2022-10-26T19:56:43.462Z,4.20
2022-10-26T19:59:15.634Z,4.38
2022-10-26T20:01:48.569Z,4.90
2022-10-26T20:04:21.034Z,5.25
2022-10-26T20:06:53.979Z,4.70
2022-10-26T20:09:26.381Z,4.53
2022-10-26T20:12:00.391Z,5.90
2022-10-26T20:14:32.537Z,4.90
2022-10-26T20:17:05.245Z,4.53
2022-10-26T20:19:37.872Z,5.00
2022-10-26T20:22:10.634Z,4.45
2022-10-26T20:24:43.431Z,5.90
2022-10-26T20:27:15.829Z,5.10
2022-10-26T20:29:48.942Z,5.30
2022-10-26T20:32:21.223Z,5.18
2022-10-26T20:34:54.150Z,5.70
2022-10-26T20:37:26.623Z,5.05
2022-10-26T20:40:00.003Z,5.30
2022-10-26T20:42:33.429Z,5.35
2022-10-26T20:45:11.097Z,5.57
2022-10-26T20:47:47.706Z,6.00
2022-10-26T20:50:25.510Z,6.70
2022-10-26T20:53:26.928Z,6.38
2022-10-26T20:56:09.582Z,6.80
2022-10-26T20:58:59.232Z,6.53
2022-10-26T21:01:34.054Z,5.75
2022-10-26T21:04:09.124Z,6.35
2022-10-26T21:06:41.444Z,6.10
2022-10-26T21:09:13.530Z,5.28
2022-10-26T21:11:45.593Z,6.20
2022-10-26T21:14:18.276Z,5.57
2022-10-26T21:16:50.591Z,6.45
2022-10-26T21:19:22.681Z,6.40
2022-10-26T21:21:54.845Z,6.10
2022-10-26T21:24:26.891Z,6.00
2022-10-26T21:26:58.922Z,6.95
2022-10-26T21:29:30.945Z,7.05
2022-10-26T21:32:03.068Z,6.60
2022-10-26T21:34:35.527Z,6.57
2022-10-26T21:37:07.611Z,7.70
2022-10-26T21:39:39.609Z,6.65
2022-10-26T21:42:12.272Z,6.55
2022-10-26T21:44:44.260Z,7.30
2022-10-26T21:47:16.416Z,7.95
2022-10-26T21:49:48.357Z,6.35
2022-10-26T21:52:20.569Z,6.60
2022-10-26T21:54:52.539Z,6.90
2022-10-26T21:57:24.663Z,7.82
2022-10-26T21:59:56.572Z,6.50
2022-10-26T22:02:28.537Z,6.40
2022-10-26T22:05:00.623Z,6.53
2022-10-26T22:07:32.608Z,7.28
2022-10-26T22:10:10.820Z,6.90
2022-10-26T22:12:43.211Z,6.93
2022-10-26T22:15:16.014Z,6.90
2022-10-26T22:17:48.585Z,6.72
2022-10-26T22:20:20.700Z,7.07
2022-10-26T22:22:52.646Z,6.82
2022-10-26T22:25:24.666Z,6.80
2022-10-26T22:27:56.677Z,8.02
2022-10-26T22:30:29.073Z,7.22
2022-10-26T22:33:01.064Z,6.05
2022-10-26T22:35:33.069Z,7.07
2022-10-26T22:38:05.085Z,6.45
2022-10-26T22:40:37.006Z,7.20
2022-10-26T22:43:08.988Z,6.70
2022-10-26T22:45:41.089Z,7.18
2022-10-26T22:48:13.219Z,6.85
2022-10-26T22:50:45.224Z,6.35
2022-10-26T22:53:17.185Z,6.80
2022-10-26T22:55:49.526Z,7.35
2022-10-26T22:58:21.752Z,6.32
2022-10-26T23:00:53.721Z,5.95
2022-10-26T23:03:43.744Z,6.00
2022-10-26T23:06:18.034Z,6.63
2022-10-26T23:08:50.844Z,7.30
2022-10-26T23:11:24.679Z,7.07
2022-10-26T23:14:01.182Z,7.07
2022-10-26T23:16:33.492Z,5.90
2022-10-26T23:19:05.803Z,7.30
2022-10-26T23:21:39.271Z,6.65
2022-10-26T23:24:11.385Z,7.20
2022-10-26T23:26:43.552Z,6.53
2022-10-26T23:29:15.568Z,6.65
2022-10-26T23:31:47.522Z,6.70
2022-10-26T23:34:19.463Z,7.60
2022-10-26T23:36:52.044Z,6.47
2022-10-26T23:39:24.185Z,6.57
2022-10-26T23:41:56.187Z,6.32
2022-10-26T23:44:28.199Z,7.45
2022-10-26T23:47:00.092Z,6.90
2022-10-26T23:49:32.513Z,6.50
2022-10-26T23:52:04.445Z,7.00
2022-10-26T23:54:36.782Z,6.40
